Time;durP1;ratioP1;P1;durP2;ratioP2;P2;SDS_P1;SDS_P2;PMS_P1;PMS_P2;Temp;Humidity;BMP_temperature;BMP_pressure;BME280_temperature;BME280_humidity;BME280_pressure;Samples;Min_cycle;Max_cycle;Signal;HPM_P1;HPM_P2
2023/06/06 00:00:20;;;;;;;7.53;2.40;;;;;;;14.94;52.43;100669.00;4257421;28;20704;-70
2023/06/06 00:02:48;;;;;;;8.53;2.60;;;;;;;14.92;52.43;100671.06;4231029;28;21746;-66
2023/06/06 00:05:16;;;;;;;9.53;2.87;;;;;;;14.98;52.41;100671.22;4252354;28;20277;-69
2023/06/06 00:07:45;;;;;;;9.00;2.40;;;;;;;14.95;52.48;100663.38;4237746;28;20301;-69
2023/06/06 00:10:14;;;;;;;11.77;2.60;;;;;;;14.87;53.13;100655.22;4244874;28;20926;-67
2023/06/06 00:12:43;;;;;;;6.00;2.50;;;;;;;14.78;53.67;100658.94;4233101;28;20227;-71
2023/06/06 00:15:12;;;;;;;8.00;2.53;;;;;;;14.61;54.52;100661.63;4223888;28;22353;-69
2023/06/06 00:17:40;;;;;;;7.30;2.63;;;;;;;14.54;54.64;100671.47;4240977;28;20230;-68
2023/06/06 00:20:08;;;;;;;7.73;2.90;;;;;;;14.52;54.66;100666.22;4241854;28;20232;-66
2023/06/06 00:22:36;;;;;;;12.53;3.00;;;;;;;14.47;55.01;100654.09;4233133;28;20314;-67
2023/06/06 00:25:04;;;;;;;10.90;2.73;;;;;;;14.41;55.53;100661.94;4226100;28;20223;-66
2023/06/06 00:27:32;;;;;;;7.20;2.57;;;;;;;14.32;55.87;100664.78;4258931;28;25777;-67
2023/06/06 00:29:58;;;;;;;7.33;2.40;;;;;;;14.21;56.17;100660.50;4245907;28;20238;-66
2023/06/06 00:32:26;;;;;;;8.13;2.40;;;;;;;14.14;56.26;100660.34;4228941;28;21714;-65
2023/06/06 00:34:54;;;;;;;8.93;2.50;;;;;;;14.10;56.72;100659.81;4231509;28;20239;-68
2023/06/06 00:37:21;;;;;;;6.00;2.40;;;;;;;14.05;56.74;100664.03;4222951;28;20238;-68
2023/06/06 00:39:48;;;;;;;7.73;2.63;;;;;;;13.99;56.95;100660.09;4250760;28;20226;-67
2023/06/06 00:42:15;;;;;;;12.50;3.00;;;;;;;13.93;57.41;100658.88;4222427;28;20589;-67
2023/06/06 00:44:41;;;;;;;4.90;2.40;;;;;;;13.92;57.16;100661.78;4224674;28;20234;-68
2023/06/06 00:47:08;;;;;;;10.13;2.83;;;;;;;13.86;57.47;100666.00;4242014;28;20310;-68
2023/06/06 00:49:36;;;;;;;11.93;3.27;;;;;;;13.77;58.09;100662.41;4236842;28;20355;-67
2023/06/06 00:52:03;;;;;;;13.93;3.00;;;;;;;13.69;57.57;100661.50;4224004;28;20571;-66
2023/06/06 00:54:31;;;;;;;9.80;3.17;;;;;;;13.84;56.17;100661.75;4229641;28;22250;-66
2023/06/06 00:56:57;;;;;;;11.77;3.63;;;;;;;13.93;55.24;100666.19;4249447;28;21112;-66
2023/06/06 00:59:24;;;;;;;8.50;3.10;;;;;;;13.95;55.12;100665.03;4229339;28;20240;-67
2023/06/06 01:01:51;;;;;;;9.43;2.73;;;;;;;14.07;54.80;100662.00;4219081;28;20829;-67
2023/06/06 01:04:20;;;;;;;11.37;3.20;;;;;;;14.13;54.96;100664.06;4223525;28;20708;-66
2023/06/06 01:06:47;;;;;;;7.83;2.93;;;;;;;14.08;55.37;100663.72;4235076;28;21722;-66
2023/06/06 01:09:15;;;;;;;7.07;3.20;;;;;;;14.07;56.12;100662.00;4233359;28;23001;-68
2023/06/06 01:12:07;;;;;;;7.40;2.90;;;;;;;13.93;56.63;100664.31;4251713;28;20919;-66
2023/06/06 01:14:49;;;;;;;13.13;3.67;;;;;;;13.89;56.32;100664.84;4255773;28;20247;-69
2023/06/06 01:17:18;;;;;;;11.97;3.50;;;;;;;13.95;55.90;100662.28;4225680;28;20228;-66
2023/06/06 01:19:49;;;;;;;14.63;3.40;;;;;;;13.94;56.22;100660.59;4223323;28;21435;-69
2023/06/06 01:22:22;;;;;;;12.10;3.50;;;;;;;13.95;56.33;100654.13;4222096;28;20235;-68
2023/06/06 01:24:52;;;;;;;12.77;2.83;;;;;;;13.89;56.30;100662.13;4228831;28;21936;-66
2023/06/06 01:27:21;;;;;;;9.03;3.10;;;;;;;13.86;56.71;100659.72;4228708;28;20228;-67
2023/06/06 01:29:49;;;;;;;8.60;3.07;;;;;;;13.76;57.75;100670.72;4232946;28;20449;-67
2023/06/06 01:32:22;;;;;;;11.53;3.00;;;;;;;13.33;59.81;100662.47;4218413;28;21756;-68
2023/06/06 01:35:04;;;;;;;9.23;3.10;;;;;;;13.11;60.56;100661.97;4239402;28;20289;-68
2023/06/06 01:37:40;;;;;;;10.07;3.57;;;;;;;12.94;61.13;100665.56;4229053;28;20231;-67
2023/06/06 01:40:09;;;;;;;7.30;3.00;;;;;;;12.87;61.79;100673.50;4218150;28;21366;-68
2023/06/06 01:42:39;;;;;;;14.10;3.40;;;;;;;12.83;62.13;100669.38;4235061;28;21851;-67
2023/06/06 01:45:07;;;;;;;7.47;3.03;;;;;;;12.88;61.60;100671.63;4246378;28;20339;-68
2023/06/06 01:47:34;;;;;;;8.50;3.43;;;;;;;12.84;61.96;100666.50;4228924;28;20395;-67
2023/06/06 01:50:03;;;;;;;8.23;3.30;;;;;;;12.77;62.38;100665.41;4221497;28;24115;-68
2023/06/06 01:52:33;;;;;;;11.97;3.10;;;;;;;12.60;63.43;100669.03;4240881;28;20227;-67
2023/06/06 01:55:01;;;;;;;7.73;3.07;;;;;;;12.55;63.62;100676.75;4217927;28;20235;-68
2023/06/06 01:57:28;;;;;;;6.77;3.20;;;;;;;12.58;63.58;100669.16;4236289;28;20285;-66
2023/06/06 01:59:54;;;;;;;12.70;3.60;;;;;;;12.51;64.10;100673.50;4223547;28;20242;-66
2023/06/06 02:02:21;;;;;;;12.90;4.20;;;;;;;12.43;64.26;100668.84;4229850;28;21986;-67
2023/06/06 02:04:48;;;;;;;10.80;4.10;;;;;;;12.44;64.67;100658.81;4252555;28;23625;-66
2023/06/06 02:07:16;;;;;;;10.17;3.70;;;;;;;12.45;64.44;100672.28;4247206;28;20336;-67
2023/06/06 02:09:43;;;;;;;7.20;3.87;;;;;;;12.34;64.86;100667.91;4232404;28;20230;-66
2023/06/06 02:12:10;;;;;;;13.77;4.40;;;;;;;12.37;64.80;100672.19;4218333;28;21389;-67
2023/06/06 02:14:37;;;;;;;14.20;3.97;;;;;;;12.46;64.46;100676.66;4222108;28;20231;-67
2023/06/06 02:17:04;;;;;;;11.40;4.07;;;;;;;12.41;64.74;100678.16;4246868;28;21127;-66
2023/06/06 02:19:31;;;;;;;11.43;3.70;;;;;;;12.42;64.22;100669.84;4223789;28;20232;-68
2023/06/06 02:21:57;;;;;;;10.63;4.07;;;;;;;12.51;63.56;100671.66;4221937;28;20251;-69
2023/06/06 02:24:24;;;;;;;10.90;4.10;;;;;;;12.49;63.39;100679.09;4233257;28;20396;-68
2023/06/06 02:26:54;;;;;;;16.63;4.37;;;;;;;12.62;62.73;100673.28;4242487;28;21674;-66
2023/06/06 02:29:22;;;;;;;13.57;3.90;;;;;;;12.72;62.21;100675.91;4247970;28;20329;-69
2023/06/06 02:31:49;;;;;;;13.77;3.63;;;;;;;12.81;61.70;100676.81;4235533;28;20586;-66
2023/06/06 02:34:17;;;;;;;8.47;3.47;;;;;;;12.70;62.14;100669.78;4253616;28;23475;-67
2023/06/06 02:36:43;;;;;;;17.03;4.00;;;;;;;12.68;62.64;100671.81;4227099;28;20231;-68
2023/06/06 02:39:10;;;;;;;10.97;3.83;;;;;;;12.68;62.33;100660.94;4253911;28;20240;-69
2023/06/06 02:41:36;;;;;;;13.23;3.47;;;;;;;12.67;62.51;100665.50;4234525;28;20240;-68
2023/06/06 02:44:03;;;;;;;11.17;4.30;;;;;;;12.70;62.46;100667.06;4229321;28;20262;-66
2023/06/06 02:46:33;;;;;;;8.07;3.63;;;;;;;12.64;63.33;100665.84;4250396;28;21135;-66
2023/06/06 02:49:00;;;;;;;16.00;3.80;;;;;;;12.67;62.86;100665.50;4226705;28;25581;-67
2023/06/06 02:51:27;;;;;;;9.50;3.40;;;;;;;12.67;62.81;100672.81;4235604;28;25615;-43
2023/06/06 02:53:53;;;;;;;12.90;3.43;;;;;;;12.56;63.18;100660.31;4246214;28;20226;-45
2023/06/06 02:56:20;;;;;;;9.63;3.97;;;;;;;12.51;64.10;100673.50;4214159;28;21711;-46
2023/06/06 02:58:47;;;;;;;10.80;3.83;;;;;;;12.47;63.65;100672.94;4232311;28;20602;-42
2023/06/06 03:01:13;;;;;;;12.30;4.23;;;;;;;12.43;63.91;100674.28;4230561;28;22719;-66
2023/06/06 03:03:40;;;;;;;9.13;3.93;;;;;;;12.47;63.72;100677.53;4230632;28;20244;-67
2023/06/06 03:06:07;;;;;;;11.27;3.90;;;;;;;12.51;62.80;100671.66;4226644;28;20239;-67
2023/06/06 03:08:34;;;;;;;15.03;3.73;;;;;;;12.65;62.73;100667.53;4230610;28;20283;-66
2023/06/06 03:11:00;;;;;;;13.10;4.17;;;;;;;12.75;62.18;100669.31;4212907;28;23503;-69
2023/06/06 03:13:27;;;;;;;9.13;3.60;;;;;;;12.87;61.18;100670.78;4231308;28;20236;-66
2023/06/06 03:15:54;;;;;;;11.33;3.57;;;;;;;12.99;61.05;100668.69;4224027;28;20242;-66
2023/06/06 03:18:20;;;;;;;14.37;3.73;;;;;;;13.12;59.60;100673.69;4221554;28;25078;-66
2023/06/06 03:20:51;;;;;;;10.87;3.40;;;;;;;13.34;58.59;100671.47;4229220;28;20291;-68
2023/06/06 03:23:17;;;;;;;10.73;3.50;;;;;;;13.50;57.48;100678.91;4227713;28;20232;-67
2023/06/06 03:25:45;;;;;;;14.97;4.77;;;;;;;13.60;57.49;100674.19;4237812;28;23078;-67
2023/06/06 03:28:12;;;;;;;13.30;3.50;;;;;;;13.81;55.68;100665.63;4248039;28;21632;-66
2023/06/06 03:30:39;;;;;;;8.57;3.00;;;;;;;13.91;55.11;100668.22;4231765;28;20222;-68
2023/06/06 03:33:06;;;;;;;10.90;3.93;;;;;;;14.07;54.68;100659.28;4237405;28;21570;-68
2023/06/06 03:35:34;;;;;;;9.23;3.00;;;;;;;14.29;53.95;100665.13;4262633;28;20259;-66
2023/06/06 03:38:01;;;;;;;8.37;3.20;;;;;;;14.46;53.37;100663.28;4220231;28;20242;-66
2023/06/06 03:40:27;;;;;;;10.30;3.57;;;;;;;14.45;53.85;100667.03;4229165;28;21091;-68
2023/06/06 03:42:54;;;;;;;14.27;3.43;;;;;;;14.56;52.89;100664.84;4242042;28;20967;-66
2023/06/06 03:45:21;;;;;;;11.17;3.37;;;;;;;14.70;52.90;100659.78;4225692;28;20239;-67
2023/06/06 03:47:48;;;;;;;10.53;3.47;;;;;;;14.78;52.07;100657.06;4234704;28;20236;-67
2023/06/06 03:50:15;;;;;;;8.63;3.40;;;;;;;14.98;51.29;100660.31;4228743;28;22096;-67
2023/06/06 03:52:42;;;;;;;11.10;3.40;;;;;;;15.10;51.74;100657.25;4259091;28;20226;-67
2023/06/06 03:55:09;;;;;;;7.77;3.10;;;;;;;15.25;51.09;100655.53;4213752;28;20238;-67
2023/06/06 03:57:37;;;;;;;9.47;3.77;;;;;;;15.40;49.80;100654.81;4227709;28;20603;-66
2023/06/06 04:00:10;;;;;;;11.37;3.17;;;;;;;15.49;49.95;100656.47;4254848;28;20238;-67
2023/06/06 04:02:37;;;;;;;16.60;4.20;;;;;;;15.53;49.67;100664.13;4233718;28;20848;-66
2023/06/06 04:05:05;;;;;;;13.63;4.03;;;;;;;15.61;49.94;100662.41;4231596;28;20234;-67
2023/06/06 04:07:32;;;;;;;13.03;3.10;;;;;;;15.68;50.25;100658.81;4217448;28;20324;-67
2023/06/06 04:09:59;;;;;;;20.23;3.73;;;;;;;15.71;50.48;100662.22;4242718;28;25491;-66
2023/06/06 04:12:26;;;;;;;9.43;3.50;;;;;;;15.82;50.12;100659.94;4245784;28;22969;-68
2023/06/06 04:14:53;;;;;;;15.20;3.77;;;;;;;15.89;49.59;100662.88;4219981;28;20293;-67
2023/06/06 04:17:21;;;;;;;9.37;3.37;;;;;;;15.95;49.67;100655.84;4220853;28;21161;-67
2023/06/06 04:19:48;;;;;;;13.63;3.17;;;;;;;16.10;49.24;100648.59;4232675;28;21870;-67
2023/06/06 04:22:15;;;;;;;9.17;3.53;;;;;;;16.24;48.86;100651.59;4242097;28;21474;-67
2023/06/06 04:24:41;;;;;;;9.10;3.37;;;;;;;16.35;48.75;100662.13;4214460;28;20240;-69
2023/06/06 04:27:09;;;;;;;11.27;3.43;;;;;;;16.51;48.30;100661.16;4223945;28;20243;-67
2023/06/06 04:29:36;;;;;;;9.77;2.93;;;;;;;16.62;48.32;100646.22;4242207;28;20250;-67
2023/06/06 04:32:03;;;;;;;12.00;3.40;;;;;;;16.66;48.35;100655.75;4236106;28;20369;-68
2023/06/06 04:34:30;;;;;;;14.23;3.57;;;;;;;16.85;48.18;100657.16;4225899;28;20235;-69
2023/06/06 04:37:06;;;;;;;11.73;3.73;;;;;;;17.11;47.29;100647.75;4219534;28;20235;-68
2023/06/06 04:39:34;;;;;;;10.77;3.20;;;;;;;17.22;46.79;100649.19;4244500;28;20287;-68
2023/06/06 04:42:01;;;;;;;12.87;3.53;;;;;;;17.39;46.90;100658.94;4224156;28;23629;-69
2023/06/06 04:44:28;;;;;;;10.30;3.47;;;;;;;17.51;45.93;100655.72;4215936;28;22697;-70
2023/06/06 04:47:01;;;;;;;14.50;3.50;;;;;;;17.68;45.59;100667.31;4235608;28;23228;-67
2023/06/06 04:49:28;;;;;;;9.83;3.40;;;;;;;17.71;45.32;100656.00;4233447;28;20332;-68
2023/06/06 04:51:59;;;;;;;13.53;3.07;;;;;;;17.85;45.79;100654.31;4223677;28;20401;-66
2023/06/06 04:54:26;;;;;;;13.93;2.97;;;;;;;18.03;45.42;100653.94;4222089;28;25275;-67
2023/06/06 04:56:52;;;;;;;11.00;2.97;;;;;;;18.10;43.41;100657.59;4250045;28;21462;-70
2023/06/06 04:59:22;;;;;;;10.13;2.80;;;;;;;18.21;42.16;100648.03;4226523;28;20673;-70
2023/06/06 05:01:49;;;;;;;10.07;2.30;;;;;;;18.22;42.27;100655.22;4249663;28;20247;-70
2023/06/06 05:04:15;;;;;;;6.03;2.30;;;;;;;18.31;41.11;100647.72;4206031;28;22383;-70
2023/06/06 05:06:42;;;;;;;8.23;2.40;;;;;;;18.47;40.84;100661.19;4226955;28;20314;-70
2023/06/06 05:09:09;;;;;;;6.80;2.10;;;;;;;18.61;40.60;100650.38;4248300;28;20288;-70
2023/06/06 05:11:36;;;;;;;8.33;2.23;;;;;;;18.89;39.59;100655.06;4225734;28;23541;-66
2023/06/06 05:14:03;;;;;;;11.70;2.30;;;;;;;18.95;39.28;100651.56;4220440;28;21779;-67
2023/06/06 05:16:30;;;;;;;9.13;2.33;;;;;;;19.15;38.97;100654.47;4246483;28;21561;-66
2023/06/06 05:18:56;;;;;;;7.07;2.53;;;;;;;19.42;39.17;100650.03;4244862;28;20774;-69
2023/06/06 05:21:23;;;;;;;11.20;2.67;;;;;;;19.46;38.31;100653.22;4229925;28;20328;-71
2023/06/06 05:23:50;;;;;;;12.23;2.40;;;;;;;19.89;38.56;100644.84;4228314;28;20281;-66
2023/06/06 05:26:16;;;;;;;11.10;2.47;;;;;;;20.18;37.76;100645.59;4221423;28;22739;-65
2023/06/06 05:28:43;;;;;;;10.20;2.30;;;;;;;20.93;35.91;100652.13;4246437;28;20230;-66
2023/06/06 05:31:10;;;;;;;7.07;2.60;;;;;;;21.71;34.95;100656.97;4225429;28;20289;-65
2023/06/06 05:33:42;;;;;;;9.20;2.33;;;;;;;22.09;33.87;100652.56;4229974;28;20237;-67
2023/06/06 05:36:09;;;;;;;11.37;2.20;;;;;;;22.21;32.99;100655.50;4220177;28;22302;-66
2023/06/06 05:38:36;;;;;;;6.73;2.40;;;;;;;22.58;32.45;100648.31;4222122;28;20282;-65
2023/06/06 05:41:03;;;;;;;9.10;2.83;;;;;;;22.96;32.21;100652.09;4245069;28;20602;-67
2023/06/06 05:43:33;;;;;;;9.30;2.70;;;;;;;23.63;31.48;100650.66;4232226;28;20308;-68
2023/06/06 05:46:01;;;;;;;12.50;2.50;;;;;;;24.27;30.39;100650.31;4247874;28;20234;-68
2023/06/06 05:48:28;;;;;;;11.65;2.67;;;;;;;24.83;29.23;100646.34;4244686;28;21285;-67
2023/06/06 05:50:54;;;;;;;13.80;2.63;;;;;;;24.86;29.98;100649.72;4230514;28;20316;-66
2023/06/06 05:53:23;;;;;;;13.30;2.50;;;;;;;25.66;27.76;100644.72;4220010;28;20229;-68
2023/06/06 05:55:50;;;;;;;10.70;2.53;;;;;;;26.28;27.11;100655.22;4208751;28;20297;-66
2023/06/06 05:58:16;;;;;;;17.50;2.75;;;;;;;25.60;27.56;100649.31;4213947;28;20288;-66
2023/06/06 06:00:43;;;;;;;14.43;2.83;;;;;;;25.75;27.49;100651.59;4237523;28;20238;-68
2023/06/06 06:03:10;;;;;;;8.60;2.10;;;;;;;26.62;26.80;100657.25;4247011;28;20385;-67
2023/06/06 06:05:37;;;;;;;9.95;3.50;;;;;;;27.44;25.63;100655.91;4257552;28;22243;-68
2023/06/06 06:08:06;;;;;;;7.00;2.17;;;;;;;28.24;24.28;100650.03;4242872;28;20247;-65
2023/06/06 06:10:34;;;;;;;9.43;3.25;;;;;;;28.17;24.85;100651.31;4235782;28;20232;-67
2023/06/06 06:13:02;;;;;;;6.97;2.35;;;;;;;28.77;23.98;100646.72;4222906;28;20319;-65
2023/06/06 06:15:30;;;;;;;15.85;3.00;;;;;;;28.73;23.46;100648.31;4227197;28;21149;-66
2023/06/06 06:17:58;;;;;;;6.05;1.75;;;;;;;29.24;22.34;100645.13;4240714;28;20238;-67
2023/06/06 06:20:25;;;;;;;7.10;2.28;;;;;;;29.70;22.31;100652.97;4226226;28;23701;-66
2023/06/06 06:22:51;;;;;;;6.22;1.80;;;;;;;28.66;23.16;100647.66;4232682;28;20265;-68
2023/06/06 06:25:19;;;;;;;6.93;1.95;;;;;;;29.04;22.73;100652.22;4225495;28;20235;-63
2023/06/06 06:27:47;;;;;;;7.32;2.05;;;;;;;27.65;24.24;100651.47;4226243;28;20596;-66
2023/06/06 06:30:14;;;;;;;9.77;2.55;;;;;;;28.82;23.22;100654.25;4221832;28;20239;-65
2023/06/06 06:32:42;;;;;;;10.82;2.20;;;;;;;28.69;23.80;100655.50;4235369;28;20669;-66
2023/06/06 06:35:09;;;;;;;5.20;1.80;;;;;;;28.85;23.26;100662.94;4235319;28;20369;-67
2023/06/06 06:37:37;;;;;;;11.90;3.58;;;;;;;29.56;22.79;100653.47;4222192;28;20733;-64
2023/06/06 06:40:09;;;;;;;8.98;2.25;;;;;;;29.41;22.58;100656.16;4249712;28;20229;-64
2023/06/06 06:42:39;;;;;;;12.80;2.00;;;;;;;29.62;22.52;100659.06;4214242;28;20298;-67
2023/06/06 06:45:08;;;;;;;15.10;3.90;;;;;;;30.10;21.85;100656.28;4232781;28;21801;-61
2023/06/06 06:47:35;;;;;;;17.67;3.35;;;;;;;30.66;21.91;100667.63;4224412;28;20228;-66
2023/06/06 06:50:04;;;;;;;9.55;2.75;;;;;;;31.58;20.79;100671.53;4231073;28;21770;-65
2023/06/06 06:52:33;;;;;;;12.15;4.10;;;;;;;32.21;19.89;100661.88;4226892;28;20239;-67
2023/06/06 06:55:01;;;;;;;14.10;2.00;;;;;;;31.26;20.53;100655.09;4227056;28;21616;-65
2023/06/06 06:57:31;;;;;;;11.98;2.13;;;;;;;31.59;20.30;100656.44;4225795;28;20239;-65
2023/06/06 06:59:58;;;;;;;4.35;2.20;;;;;;;30.12;21.74;100657.69;4206390;28;20545;-64
2023/06/06 07:02:27;;;;;;;10.30;2.20;;;;;;;30.65;21.55;100651.13;4249703;28;20234;-66
2023/06/06 07:05:01;;;;;;;14.45;2.22;;;;;;;30.48;21.53;100660.56;4217184;28;20270;-66
2023/06/06 07:07:27;;;;;;;8.32;1.75;;;;;;;30.67;21.15;100658.13;4224962;28;21726;-68
2023/06/06 07:09:54;;;;;;;9.82;2.17;;;;;;;30.56;21.98;100659.19;4236660;28;21222;-65
2023/06/06 07:12:21;;;;;;;7.03;1.88;;;;;;;30.02;21.98;100650.06;4219173;28;20243;-67
2023/06/06 07:14:48;;;;;;;4.25;2.00;;;;;;;30.31;21.53;100655.22;4243695;28;20265;-68
2023/06/06 07:17:16;;;;;;;8.85;2.20;;;;;;;29.49;22.32;100649.25;4249497;28;23415;-68
2023/06/06 07:19:43;;;;;;;5.53;1.83;;;;;;;29.37;22.36;100644.69;4229480;28;20406;-68
2023/06/06 07:22:10;;;;;;;4.32;2.05;;;;;;;28.60;22.76;100646.78;4208105;28;20499;-69
2023/06/06 07:24:36;;;;;;;9.45;2.10;;;;;;;29.04;22.74;100643.03;4224314;28;20233;-70
2023/06/06 07:27:04;;;;;;;10.55;1.98;;;;;;;27.71;24.40;100646.00;4227517;28;21842;-68
2023/06/06 07:29:31;;;;;;;5.47;1.88;;;;;;;28.04;24.21;100636.69;4232416;28;20230;-70
2023/06/06 07:31:57;;;;;;;4.90;1.63;;;;;;;27.50;24.35;100642.91;4214960;28;20632;-67
2023/06/06 07:34:24;;;;;;;8.75;2.45;;;;;;;27.85;24.31;100647.28;4230856;28;20236;-69
2023/06/06 07:36:52;;;;;;;8.00;1.77;;;;;;;27.32;24.91;100644.00;4261991;28;20230;-68
2023/06/06 07:39:18;;;;;;;11.73;2.30;;;;;;;27.45;24.73;100648.38;4224645;28;20227;-68
2023/06/06 07:41:45;;;;;;;6.25;2.10;;;;;;;27.12;25.60;100650.91;4218968;28;20721;-71
2023/06/06 07:44:12;;;;;;;6.50;1.83;;;;;;;27.01;25.45;100649.06;4243869;28;20304;-67
2023/06/06 07:46:38;;;;;;;9.10;2.05;;;;;;;27.47;25.67;100647.03;4232834;28;20239;-69
2023/06/06 07:49:05;;;;;;;3.90;1.77;;;;;;;28.07;24.23;100643.69;4217907;28;20291;-69
2023/06/06 07:51:35;;;;;;;8.68;2.15;;;;;;;27.98;23.91;100637.72;4217025;28;20235;-69
2023/06/06 07:54:02;;;;;;;7.95;1.90;;;;;;;27.82;24.17;100633.88;4216933;28;20244;-70
2023/06/06 07:56:36;;;;;;;5.00;1.70;;;;;;;28.35;24.06;100639.00;4234548;28;20238;-71
2023/06/06 07:59:03;;;;;;;6.25;1.67;;;;;;;27.28;24.44;100635.31;4217754;28;20464;-68
2023/06/06 08:01:31;;;;;;;2.30;1.30;;;;;;;27.11;25.04;100640.06;4226002;28;23085;-68
2023/06/06 08:03:59;;;;;;;4.50;1.52;;;;;;;26.68;25.01;100634.88;4221284;28;20239;-68
2023/06/06 08:06:32;;;;;;;4.70;1.77;;;;;;;26.62;24.90;100632.25;4229837;28;20244;-70
2023/06/06 08:08:59;;;;;;;6.53;1.60;;;;;;;26.49;24.69;100633.41;4243516;28;21794;-68
2023/06/06 08:11:26;;;;;;;5.18;1.70;;;;;;;26.77;24.96;100628.94;4216187;28;23651;-68
2023/06/06 08:13:52;;;;;;;3.90;1.77;;;;;;;27.33;24.36;100626.22;4222826;28;20598;-71
2023/06/06 08:16:19;;;;;;;4.45;1.70;;;;;;;27.77;24.88;100619.91;4229604;28;20360;-71
2023/06/06 08:18:46;;;;;;;6.88;1.63;;;;;;;27.93;23.89;100619.03;4240629;28;20637;-71
2023/06/06 08:21:13;;;;;;;4.53;1.40;;;;;;;26.89;24.49;100618.56;4230999;28;20235;-70
2023/06/06 08:23:40;;;;;;;5.45;1.45;;;;;;;26.39;25.19;100623.78;4215218;28;21264;-71
2023/06/06 08:26:07;;;;;;;5.00;1.50;;;;;;;26.93;25.47;100630.88;4246033;28;20810;-70
2023/06/06 08:28:34;;;;;;;7.35;1.60;;;;;;;27.54;24.61;100615.41;4219791;28;20314;-70
2023/06/06 08:31:02;;;;;;;7.28;1.98;;;;;;;27.98;23.99;100616.28;4222919;28;26200;-69
2023/06/06 08:33:28;;;;;;;12.82;1.95;;;;;;;28.07;23.61;100613.09;4242657;28;21081;-73
2023/06/06 08:35:55;;;;;;;4.68;1.70;;;;;;;27.23;24.79;100609.41;4229815;28;20236;-70
2023/06/06 08:38:24;;;;;;;6.32;1.42;;;;;;;27.85;24.45;100611.13;4259611;28;20606;-69
2023/06/06 08:40:52;;;;;;;5.10;1.55;;;;;;;27.59;24.46;100613.56;4229566;28;20543;-70
2023/06/06 08:43:19;;;;;;;6.00;1.67;;;;;;;27.74;24.91;100604.59;4255330;28;20270;-76
2023/06/06 08:45:56;;;;;;;15.27;1.98;;;;;;;28.06;24.26;100608.63;4237176;28;20266;-45
2023/06/06 08:48:28;;;;;;;5.20;1.80;;;;;;;27.87;25.20;100610.84;4223589;28;20285;-71
2023/06/06 08:50:56;;;;;;;4.53;1.73;;;;;;;28.19;23.95;100608.19;4229124;28;20349;-71
2023/06/06 08:53:23;;;;;;;4.85;1.50;;;;;;;27.68;25.17;100594.50;4256773;28;20266;-72
2023/06/06 08:55:49;;;;;;;7.88;1.60;;;;;;;27.49;24.83;100600.34;4249554;28;20235;-72
2023/06/06 08:58:16;;;;;;;2.33;1.50;;;;;;;27.70;24.88;100603.41;4234727;28;20497;-76
2023/06/06 09:00:43;;;;;;;4.35;1.60;;;;;;;27.87;24.27;100599.72;4239754;28;22168;-73
2023/06/06 09:03:11;;;;;;;6.88;1.98;;;;;;;27.71;25.11;100593.16;4252057;28;25644;-73
2023/06/06 09:05:38;;;;;;;6.50;1.88;;;;;;;27.42;24.94;100593.31;4263753;28;20271;-70
2023/06/06 09:08:05;;;;;;;4.07;1.53;;;;;;;27.58;24.24;100591.59;4244406;28;20637;-71
2023/06/06 09:10:32;;;;;;;5.53;1.97;;;;;;;27.35;25.15;100596.25;4220616;28;20250;-73
2023/06/06 09:12:58;;;;;;;3.65;1.63;;;;;;;27.61;25.38;100593.81;4239823;28;20245;-66
2023/06/06 09:15:26;;;;;;;6.30;1.58;;;;;;;27.07;25.43;100584.16;4227579;28;20239;-68
2023/06/06 09:17:54;;;;;;;3.50;1.83;;;;;;;27.43;25.10;100583.84;4226761;28;20227;-68
2023/06/06 09:20:22;;;;;;;5.03;1.60;;;;;;;26.54;26.43;100592.72;4223558;28;20332;-67
2023/06/06 09:22:50;;;;;;;7.38;2.00;;;;;;;26.31;26.95;100590.06;4263176;28;20643;-70
2023/06/06 09:25:17;;;;;;;5.28;1.58;;;;;;;26.39;26.82;100592.44;4240674;28;21707;-71
2023/06/06 09:27:44;;;;;;;10.57;1.88;;;;;;;26.94;24.95;100590.91;4234209;28;20235;-72
2023/06/06 09:30:24;;;;;;;6.32;1.85;;;;;;;26.51;25.43;100584.88;4242302;28;21304;-68
2023/06/06 09:33:02;;;;;;;6.03;1.63;;;;;;;26.48;26.18;100574.25;4259582;28;20229;-71
2023/06/06 09:35:34;;;;;;;3.40;1.60;;;;;;;26.84;26.46;100580.47;4225557;28;20235;-70
2023/06/06 09:38:10;;;;;;;8.85;1.70;;;;;;;26.88;25.57;100573.31;4231827;28;22224;-69
2023/06/06 09:40:47;;;;;;;9.48;2.00;;;;;;;26.90;26.25;100573.03;4221768;28;20228;-68
2023/06/06 09:43:15;;;;;;;6.18;1.23;;;;;;;26.87;25.75;100573.56;4223209;28;20250;-66
2023/06/06 09:45:52;;;;;;;3.78;1.27;;;;;;;26.22;27.21;100575.72;4227155;28;20316;-67
2023/06/06 09:48:20;;;;;;;6.15;1.48;;;;;;;25.94;26.73;100569.88;4230380;28;20226;-69
2023/06/06 09:50:47;;;;;;;5.50;1.73;;;;;;;26.14;25.34;100565.03;4225871;28;20239;-68
2023/06/06 09:53:14;;;;;;;4.03;1.27;;;;;;;26.25;26.25;100566.91;4227471;28;21686;-67
2023/06/06 09:55:42;;;;;;;5.05;1.50;;;;;;;26.07;25.81;100563.25;4251852;28;20657;-69
2023/06/06 09:58:09;;;;;;;4.93;1.40;;;;;;;26.10;26.51;100562.75;4223846;28;20234;-66
2023/06/06 10:00:37;;;;;;;2.88;1.38;;;;;;;26.12;26.54;100562.50;4226367;28;20306;-67
2023/06/06 10:03:06;;;;;;;11.07;1.60;;;;;;;26.16;26.54;100560.06;4233203;28;20242;-67
2023/06/06 10:05:33;;;;;;;5.90;1.63;;;;;;;26.40;26.03;100558.88;4217241;28;22322;-68
2023/06/06 10:08:00;;;;;;;4.83;1.70;;;;;;;26.32;26.82;100553.72;4216696;28;20240;-71
2023/06/06 10:10:27;;;;;;;5.95;1.75;;;;;;;26.01;26.71;100553.13;4248308;28;20295;-69
2023/06/06 10:12:55;;;;;;;5.00;1.50;;;;;;;26.17;26.56;100548.72;4238730;28;20652;-70
2023/06/06 10:15:25;;;;;;;5.40;1.65;;;;;;;26.30;25.94;100566.16;4220396;28;20482;-71
2023/06/06 10:17:52;;;;;;;4.47;1.60;;;;;;;26.09;26.17;100558.31;4249974;28;20245;-68
2023/06/06 10:20:21;;;;;;;5.28;1.88;;;;;;;26.21;26.03;100551.88;4242301;28;20316;-69
2023/06/06 10:22:48;;;;;;;4.30;1.70;;;;;;;25.78;26.83;100559.59;4226392;28;20237;-68
2023/06/06 10:25:16;;;;;;;3.30;1.73;;;;;;;25.60;26.69;100546.75;4256118;28;20241;-67
2023/06/06 10:28:00;;;;;;;10.55;1.90;;;;;;;25.23;27.13;100558.94;4223195;28;20582;-70
2023/06/06 10:30:30;;;;;;;3.10;1.50;;;;;;;25.34;26.39;100545.34;4228170;28;20854;-71
2023/06/06 10:33:21;;;;;;;5.22;1.55;;;;;;;25.39;26.34;100549.06;4237130;28;20307;-68
2023/06/06 10:35:52;;;;;;;3.40;1.75;;;;;;;25.31;26.57;100541.09;4254387;28;20230;-67
2023/06/06 10:38:19;;;;;;;4.32;1.88;;;;;;;25.08;27.30;100533.66;4225270;28;21739;-72
2023/06/06 10:40:50;;;;;;;6.70;1.83;;;;;;;25.72;27.00;100533.69;4233146;28;20317;-73
2023/06/06 10:43:19;;;;;;;5.18;1.60;;;;;;;25.90;27.17;100529.88;4242560;28;20639;-75
2023/06/06 10:46:01;;;;;;;6.35;1.70;;;;;;;26.08;26.08;100534.41;4229291;28;20304;-76
2023/06/06 10:48:45;;;;;;;2.80;1.40;;;;;;;25.94;25.66;100536.59;4267077;28;20223;-71
2023/06/06 10:51:25;;;;;;;7.38;2.10;;;;;;;26.37;25.69;100533.56;4326162;28;20226;-76
2023/06/06 10:54:19;;;;;;;3.45;1.63;;;;;;;26.53;26.13;100527.16;4306379;28;20284;-68
2023/06/06 10:56:52;;;;;;;4.15;1.63;;;;;;;26.99;25.17;100532.63;4286272;28;21151;-67
2023/06/06 10:59:31;;;;;;;4.38;1.70;;;;;;;26.88;24.08;100528.03;4297026;28;20260;-67
2023/06/06 11:01:59;;;;;;;3.80;1.80;;;;;;;26.62;24.65;100521.19;4293301;28;20656;-68
2023/06/06 11:04:27;;;;;;;3.75;1.73;;;;;;;26.87;24.61;100520.78;4314350;28;21151;-68
2023/06/06 11:06:59;;;;;;;3.55;1.65;;;;;;;26.72;24.60;100519.44;4269350;28;20312;-65
2023/06/06 11:09:32;;;;;;;6.85;2.00;;;;;;;26.84;24.25;100522.16;4230868;28;20231;-67
2023/06/06 11:12:14;;;;;;;5.60;1.95;;;;;;;27.17;23.94;100516.78;4233898;28;20900;-66
2023/06/06 11:14:57;;;;;;;3.78;1.50;;;;;;;26.80;24.73;100517.34;4222695;28;20235;-65
2023/06/06 11:17:27;;;;;;;4.85;1.58;;;;;;;26.98;24.19;100514.28;4221521;28;20406;-69
2023/06/06 11:19:57;;;;;;;8.30;2.00;;;;;;;27.10;23.89;100521.69;4216888;28;20231;-67
2023/06/06 11:22:25;;;;;;;5.17;1.70;;;;;;;27.36;24.14;100515.34;4231356;28;20309;-66
2023/06/06 11:24:55;;;;;;;10.57;1.50;;;;;;;27.79;23.51;100512.03;4227359;28;20232;-67
2023/06/06 11:27:22;;;;;;;4.50;1.80;;;;;;;27.45;24.07;100507.47;4210222;28;21120;-67